createdAt,value
2022-08-03T00:02:19.339Z,59.96
2022-08-03T00:04:49.915Z,59.73
2022-08-03T00:07:17.932Z,59.72
2022-08-03T00:09:48.430Z,59.93
2022-08-03T00:12:17.131Z,60.14
2022-08-03T00:14:45.379Z,60.12
2022-08-03T00:17:14.262Z,60.09
2022-08-03T00:19:42.288Z,59.66
2022-08-03T00:22:11.501Z,59.94
2022-08-03T00:24:39.307Z,59.96
2022-08-03T00:27:07.129Z,60.00
2022-08-03T00:29:57.595Z,60.17
2022-08-03T00:32:24.142Z,60.25
2022-08-03T00:34:57.842Z,59.92
2022-08-03T00:37:40.654Z,59.88
2022-08-03T00:40:13.502Z,59.98
2022-08-03T00:42:50.719Z,59.97
2022-08-03T00:45:19.497Z,60.47
2022-08-03T00:47:48.239Z,59.90
2022-08-03T00:50:18.210Z,60.02
2022-08-03T00:52:47.803Z,59.91
2022-08-03T00:55:16.763Z,59.74
2022-08-03T00:57:45.318Z,59.80
2022-08-03T01:00:16.981Z,59.56
2022-08-03T01:02:47.638Z,59.99
2022-08-03T01:05:15.677Z,60.04
2022-08-03T01:08:03.243Z,59.66
2022-08-03T01:10:39.843Z,60.01
2022-08-03T01:14:01.063Z,60.28
2022-08-03T01:16:25.821Z,60.44
2022-08-03T01:19:31.447Z,60.15
2022-08-03T01:22:23.221Z,59.95
2022-08-03T01:25:06.324Z,60.14
2022-08-03T01:28:02.306Z,60.46
2022-08-03T01:30:37.368Z,60.72
2022-08-03T01:33:15.535Z,60.93
2022-08-03T01:35:48.733Z,60.90
2022-08-03T01:38:24.774Z,60.89
2022-08-03T01:40:55.665Z,61.47
2022-08-03T01:44:26.967Z,61.22
2022-08-03T01:46:23.248Z,61.56
2022-08-03T01:48:51.979Z,61.65
2022-08-03T01:51:22.240Z,61.16
2022-08-03T01:53:54.807Z,61.13
2022-08-03T01:56:27.682Z,61.07
2022-08-03T01:58:58.817Z,61.16
2022-08-03T02:02:15.399Z,61.37
2022-08-03T02:04:22.665Z,61.48
2022-08-03T02:07:00.398Z,61.35
2022-08-03T02:09:33.060Z,61.04
2022-08-03T02:12:02.127Z,61.04
2022-08-03T02:14:33.092Z,60.84
2022-08-03T02:17:04.615Z,60.70
2022-08-03T02:19:35.912Z,60.66
2022-08-03T02:22:08.426Z,60.99
2022-08-03T02:24:36.500Z,60.59
2022-08-03T02:27:14.783Z,60.53
2022-08-03T02:29:48.760Z,60.62
2022-08-03T02:32:30.772Z,60.72
2022-08-03T02:35:02.338Z,60.61
2022-08-03T02:37:38.605Z,60.96
2022-08-03T02:40:15.111Z,60.71
2022-08-03T02:42:46.566Z,60.93
2022-08-03T02:45:19.892Z,60.66
2022-08-03T02:47:54.231Z,60.64
2022-08-03T02:50:24.505Z,60.80
2022-08-03T02:52:53.271Z,61.04
2022-08-03T02:55:23.284Z,61.07
2022-08-03T02:57:53.316Z,61.02
2022-08-03T03:00:28.448Z,61.39
2022-08-03T03:03:01.581Z,61.42
2022-08-03T03:05:52.213Z,61.68
2022-08-03T03:08:26.870Z,61.60
2022-08-03T03:10:59.987Z,61.64
2022-08-03T03:13:30.192Z,61.78
2022-08-03T03:16:03.767Z,62.08
2022-08-03T03:18:35.277Z,62.70
2022-08-03T03:21:05.507Z,62.73
2022-08-03T03:23:37.297Z,62.78
2022-08-03T03:26:07.602Z,63.24
2022-08-03T03:28:39.453Z,64.95
2022-08-03T03:31:09.353Z,65.34
2022-08-03T03:33:39.434Z,64.79
2022-08-03T03:36:10.210Z,65.53
2022-08-03T03:38:39.333Z,65.26
2022-08-03T03:41:08.127Z,65.86
2022-08-03T03:43:36.355Z,66.62
2022-08-03T03:46:05.258Z,66.74
2022-08-03T03:48:33.673Z,66.29
2022-08-03T03:51:03.557Z,66.05
2022-08-03T03:53:31.578Z,65.53
2022-08-03T03:56:02.607Z,65.68
2022-08-03T03:58:32.826Z,65.61
2022-08-03T04:01:03.604Z,65.61
2022-08-03T04:03:33.229Z,65.79
2022-08-03T04:06:21.621Z,65.79
2022-08-03T04:09:08.305Z,65.80
2022-08-03T04:11:43.536Z,65.44
2022-08-03T04:14:17.498Z,65.48
2022-08-03T04:16:50.786Z,65.51
2022-08-03T04:19:28.699Z,65.88
2022-08-03T04:22:03.965Z,65.94
2022-08-03T04:24:35.212Z,65.96
2022-08-03T04:27:08.279Z,66.09
2022-08-03T04:29:46.457Z,66.49
2022-08-03T04:32:18.168Z,66.89
2022-08-03T04:34:47.385Z,67.36
2022-08-03T04:37:27.353Z,67.23
2022-08-03T04:40:00.191Z,66.23
2022-08-03T04:42:31.868Z,66.83
2022-08-03T04:45:02.022Z,66.95
2022-08-03T04:47:33.434Z,67.78
2022-08-03T04:50:03.232Z,67.49
2022-08-03T04:52:34.050Z,66.52
2022-08-03T04:55:01.938Z,66.77
2022-08-03T04:57:30.024Z,66.57
2022-08-03T05:00:02.752Z,66.68
2022-08-03T05:02:32.048Z,65.08
2022-08-03T05:05:00.537Z,63.64
2022-08-03T05:07:35.719Z,63.75
2022-08-03T05:10:15.831Z,63.80
2022-08-03T05:12:46.056Z,62.76
2022-08-03T05:15:14.637Z,62.68
2022-08-03T05:17:45.576Z,61.30
2022-08-03T05:20:18.935Z,61.50
2022-08-03T05:22:47.197Z,60.49
2022-08-03T05:25:19.780Z,59.06
2022-08-03T05:27:50.921Z,58.46
2022-08-03T05:30:29.663Z,57.68
2022-08-03T05:33:06.374Z,56.55
2022-08-03T05:36:02.097Z,56.32
2022-08-03T05:38:28.572Z,55.64
2022-08-03T05:41:21.290Z,55.18
2022-08-03T05:43:52.245Z,54.85
2022-08-03T05:46:21.057Z,54.50
2022-08-03T05:48:49.226Z,54.49
2022-08-03T05:51:17.558Z,54.06
2022-08-03T05:53:46.649Z,53.18
2022-08-03T05:56:16.817Z,53.25
2022-08-03T05:58:47.476Z,51.71
2022-08-03T06:01:19.202Z,51.64
2022-08-03T06:03:48.280Z,52.24
2022-08-03T06:06:17.211Z,51.44
2022-08-03T06:08:48.761Z,51.41
2022-08-03T06:11:18.192Z,50.93
2022-08-03T06:13:46.741Z,49.62
2022-08-03T06:16:14.996Z,49.22
2022-08-03T06:18:43.854Z,49.46
2022-08-03T06:21:15.690Z,48.60
2022-08-03T06:23:54.335Z,47.96
2022-08-03T06:26:28.648Z,47.33
2022-08-03T06:28:57.658Z,47.55
2022-08-03T06:31:33.174Z,46.58
2022-08-03T06:34:33.510Z,46.86
2022-08-03T06:36:59.968Z,47.15
2022-08-03T06:39:32.538Z,45.98
2022-08-03T06:42:04.870Z,45.54
2022-08-03T06:44:34.482Z,45.87
2022-08-03T06:47:03.835Z,45.20
2022-08-03T06:49:32.550Z,44.21
2022-08-03T06:52:04.085Z,43.60
2022-08-03T06:54:36.175Z,42.58
2022-08-03T06:57:08.352Z,42.10
2022-08-03T07:00:08.645Z,42.16
2022-08-03T07:02:25.131Z,41.15
2022-08-03T07:04:57.429Z,41.07
2022-08-03T07:07:26.179Z,41.01
2022-08-03T07:09:57.126Z,41.31
2022-08-03T07:12:29.908Z,41.02
2022-08-03T07:15:02.669Z,40.56
2022-08-03T07:17:34.074Z,39.40
2022-08-03T07:20:04.971Z,38.89
2022-08-03T07:22:33.004Z,40.08
2022-08-03T07:25:01.224Z,39.40
2022-08-03T07:27:30.655Z,38.22
2022-08-03T07:29:59.318Z,38.91
2022-08-03T07:32:31.278Z,38.59
2022-08-03T07:35:01.178Z,38.13
2022-08-03T07:37:31.475Z,38.04
2022-08-03T07:40:01.424Z,36.88
2022-08-03T07:42:31.568Z,37.27
2022-08-03T07:44:59.889Z,36.64
2022-08-03T07:47:35.096Z,35.37
2022-08-03T07:50:08.761Z,35.34
2022-08-03T07:52:49.764Z,36.84
2022-08-03T07:55:20.742Z,35.50
2022-08-03T07:58:01.199Z,36.36
2022-08-03T08:00:29.112Z,36.11
2022-08-03T08:02:56.973Z,37.10
2022-08-03T08:05:25.152Z,36.44
2022-08-03T08:07:53.092Z,35.81
2022-08-03T08:10:21.337Z,35.49
2022-08-03T08:12:50.792Z,34.58
2022-08-03T08:15:20.346Z,34.26
2022-08-03T08:17:52.959Z,34.91
2022-08-03T08:20:28.086Z,34.97
2022-08-03T08:23:01.860Z,34.47
2022-08-03T08:25:33.584Z,33.86
2022-08-03T08:28:22.540Z,33.80
2022-08-03T08:30:52.264Z,33.38
2022-08-03T08:33:23.556Z,33.75
2022-08-03T08:35:53.631Z,33.23
2022-08-03T08:38:22.499Z,33.25
2022-08-03T08:40:50.649Z,34.22
2022-08-03T08:43:20.920Z,33.92
2022-08-03T08:45:55.925Z,33.50
2022-08-03T08:48:28.135Z,32.47
2022-08-03T08:50:57.791Z,33.37
2022-08-03T08:53:29.521Z,32.33
2022-08-03T08:56:02.121Z,32.14
2022-08-03T08:58:38.766Z,31.28
2022-08-03T09:01:08.200Z,32.27
2022-08-03T09:03:37.228Z,31.29
2022-08-03T09:06:05.470Z,30.54
2022-08-03T09:08:33.555Z,31.12
2022-08-03T09:11:01.415Z,30.45
2022-08-03T09:13:35.281Z,30.85
2022-08-03T09:16:14.275Z,30.11
2022-08-03T09:18:45.853Z,31.68
2022-08-03T09:21:31.699Z,30.52
2022-08-03T09:24:05.824Z,30.62
2022-08-03T09:26:37.642Z,30.74
2022-08-03T09:29:14.601Z,30.30
2022-08-03T09:31:46.710Z,30.82
2022-08-03T09:34:17.323Z,30.62
2022-08-03T09:36:47.153Z,29.46
2022-08-03T09:39:17.047Z,29.27
2022-08-03T09:41:48.435Z,29.59
2022-08-03T09:44:24.868Z,28.13
2022-08-03T09:46:56.367Z,28.62
2022-08-03T09:49:25.400Z,27.60
2022-08-03T09:52:33.934Z,27.76
2022-08-03T09:54:44.237Z,28.28
2022-08-03T09:57:22.699Z,28.44
2022-08-03T10:00:04.575Z,28.91
2022-08-03T10:02:42.414Z,28.41
2022-08-03T10:05:17.632Z,27.48
2022-08-03T10:07:50.401Z,28.60
2022-08-03T10:10:31.054Z,28.98
2022-08-03T10:13:00.786Z,28.44
2022-08-03T10:16:21.817Z,28.28
2022-08-03T10:18:18.446Z,27.48
2022-08-03T10:20:52.237Z,28.95
2022-08-03T10:23:22.770Z,28.13
2022-08-03T10:25:57.926Z,28.58
2022-08-03T10:28:33.247Z,30.59
2022-08-03T10:31:07.596Z,30.06
2022-08-03T10:33:50.183Z,29.93
2022-08-03T10:36:24.721Z,30.43
2022-08-03T10:38:55.160Z,31.02
2022-08-03T10:41:31.449Z,30.42
2022-08-03T10:44:06.745Z,29.98
2022-08-03T10:46:44.453Z,29.97
2022-08-03T10:49:14.803Z,29.88
2022-08-03T10:51:44.940Z,29.27
2022-08-03T10:55:03.316Z,29.53
2022-08-03T10:58:12.384Z,28.77
2022-08-03T11:00:53.439Z,29.33
2022-08-03T11:03:22.759Z,28.71
2022-08-03T11:05:52.211Z,29.65
2022-08-03T11:08:30.097Z,28.57
2022-08-03T11:11:23.938Z,27.84
2022-08-03T11:13:59.489Z,26.80
2022-08-03T11:16:28.284Z,26.97
2022-08-03T11:19:00.967Z,25.84
2022-08-03T11:21:54.531Z,25.67
2022-08-03T11:25:00.268Z,25.87
2022-08-03T11:27:31.355Z,25.97
2022-08-03T11:30:05.463Z,25.93
2022-08-03T11:32:59.855Z,26.62
2022-08-03T11:35:36.744Z,25.58
2022-08-03T11:38:12.610Z,24.38
2022-08-03T11:40:45.067Z,25.39
2022-08-03T11:43:46.938Z,22.67
2022-08-03T11:46:28.403Z,24.29
2022-08-03T11:49:10.304Z,22.51
2022-08-03T11:51:40.893Z,24.73
2022-08-03T11:54:08.977Z,22.66
2022-08-03T11:56:49.233Z,23.06
2022-08-03T11:59:21.708Z,21.57
2022-08-03T12:02:05.704Z,22.57
2022-08-03T12:04:50.346Z,21.96
2022-08-03T12:07:25.897Z,21.60
2022-08-03T12:10:12.812Z,21.87
2022-08-03T12:12:46.425Z,22.88
2022-08-03T12:15:15.202Z,22.47
2022-08-03T12:17:43.418Z,21.53
2022-08-03T12:20:34.828Z,19.51
2022-08-03T12:23:07.497Z,20.39
2022-08-03T12:25:39.879Z,21.46
2022-08-03T12:28:37.145Z,20.91
2022-08-03T12:31:07.490Z,20.98
2022-08-03T12:33:59.006Z,20.96
2022-08-03T12:36:28.621Z,20.24
2022-08-03T12:39:03.095Z,21.52
2022-08-03T12:41:34.865Z,21.15
2022-08-03T12:44:05.977Z,19.07
2022-08-03T12:46:36.933Z,19.26
2022-08-03T12:49:08.466Z,20.62
2022-08-03T12:51:57.022Z,20.20
2022-08-03T12:54:29.389Z,20.54
2022-08-03T12:57:00.671Z,20.24
2022-08-03T12:59:35.076Z,20.56
2022-08-03T13:02:16.769Z,20.16
2022-08-03T13:04:47.783Z,19.25
2022-08-03T13:07:19.678Z,20.66
2022-08-03T13:09:52.906Z,19.72
2022-08-03T13:12:22.886Z,20.71
2022-08-03T13:14:53.247Z,19.98
2022-08-03T13:17:28.203Z,19.03
2022-08-03T13:19:56.475Z,19.68
2022-08-03T13:22:28.985Z,19.16
2022-08-03T13:25:02.948Z,19.43
2022-08-03T13:28:04.552Z,19.19
2022-08-03T13:30:29.717Z,18.63
2022-08-03T13:33:00.122Z,19.06
2022-08-03T13:35:28.729Z,18.95
2022-08-03T13:37:56.770Z,17.79
2022-08-03T13:40:30.053Z,17.33
2022-08-03T13:42:58.791Z,17.18
2022-08-03T13:45:27.580Z,18.50
2022-08-03T13:47:55.707Z,18.71
2022-08-03T13:50:23.568Z,18.13
2022-08-03T13:52:51.864Z,19.89
2022-08-03T13:55:19.693Z,19.36
2022-08-03T13:58:02.670Z,18.91
2022-08-03T14:00:35.301Z,19.99
2022-08-03T14:03:12.660Z,19.11
2022-08-03T14:05:43.895Z,19.28
2022-08-03T14:08:14.522Z,19.90
2022-08-03T14:10:45.894Z,19.49
2022-08-03T14:13:17.439Z,18.47
2022-08-03T14:15:51.187Z,18.05
2022-08-03T14:18:28.622Z,19.01
2022-08-03T14:21:06.775Z,19.35
2022-08-03T14:23:37.802Z,18.56
2022-08-03T14:26:09.493Z,19.29
2022-08-03T14:28:38.676Z,19.72
2022-08-03T14:31:08.484Z,19.45
2022-08-03T14:33:55.673Z,20.32
2022-08-03T14:36:23.465Z,19.77
2022-08-03T14:38:51.326Z,18.83
2022-08-03T14:41:20.344Z,18.98
2022-08-03T14:44:01.302Z,20.26
2022-08-03T14:46:30.874Z,19.49
2022-08-03T14:50:28.474Z,20.69
2022-08-03T14:51:53.793Z,21.53
2022-08-03T14:54:22.354Z,20.76
2022-08-03T14:56:50.288Z,19.88
2022-08-03T14:59:19.450Z,19.93
2022-08-03T15:02:06.042Z,20.52
2022-08-03T15:04:35.099Z,19.62
2022-08-03T15:07:03.195Z,19.63
2022-08-03T15:09:31.366Z,20.23
2022-08-03T15:12:00.542Z,20.39
2022-08-03T15:14:33.127Z,20.48
2022-08-03T15:17:02.897Z,20.22
2022-08-03T15:20:02.165Z,20.60
2022-08-03T15:22:25.315Z,21.55
2022-08-03T15:25:04.200Z,21.07
2022-08-03T15:28:03.509Z,20.24
2022-08-03T15:30:36.906Z,20.61
2022-08-03T15:33:07.942Z,20.95
2022-08-03T15:35:36.174Z,21.39
2022-08-03T15:38:09.026Z,22.47
2022-08-03T15:40:38.479Z,22.23
2022-08-03T15:43:06.769Z,22.08
2022-08-03T15:45:37.256Z,21.66
2022-08-03T15:48:05.721Z,21.69
2022-08-03T15:50:33.657Z,22.08
2022-08-03T15:53:01.560Z,21.65
2022-08-03T15:55:29.477Z,22.77
2022-08-03T15:59:10.686Z,22.71
2022-08-03T16:00:47.222Z,23.73
2022-08-03T16:03:15.385Z,23.00
2022-08-03T16:05:43.228Z,23.40
2022-08-03T16:08:13.818Z,23.13
2022-08-03T16:10:42.476Z,24.22
2022-08-03T16:13:10.572Z,23.41
2022-08-03T16:15:39.085Z,24.35
2022-08-03T16:18:09.748Z,25.36
2022-08-03T16:20:37.507Z,25.19
2022-08-03T16:23:10.436Z,24.75
2022-08-03T16:25:40.260Z,24.30
2022-08-03T16:28:13.729Z,23.97
2022-08-03T16:30:44.794Z,24.82
2022-08-03T16:33:17.456Z,24.22
2022-08-03T16:35:48.996Z,24.02
2022-08-03T16:38:19.395Z,23.74
2022-08-03T16:40:51.447Z,23.94
2022-08-03T16:43:22.341Z,23.47
2022-08-03T16:45:51.146Z,23.58
2022-08-03T16:48:20.440Z,23.49
2022-08-03T16:50:48.984Z,24.05
2022-08-03T16:53:33.208Z,23.78
2022-08-03T16:56:09.859Z,24.18
2022-08-03T16:58:42.054Z,23.80
2022-08-03T17:01:22.265Z,24.63
2022-08-03T17:04:02.477Z,24.49
2022-08-03T17:06:36.971Z,25.11
2022-08-03T17:09:09.840Z,25.15
2022-08-03T17:11:46.665Z,25.42
2022-08-03T17:14:21.842Z,25.49
2022-08-03T17:16:53.927Z,25.61
2022-08-03T17:19:26.320Z,26.02
2022-08-03T17:22:03.929Z,26.54
2022-08-03T17:24:34.854Z,26.17
2022-08-03T17:27:08.810Z,26.08
2022-08-03T17:29:45.265Z,26.27
2022-08-03T17:32:21.127Z,26.32
2022-08-03T17:34:51.168Z,26.71
2022-08-03T17:37:50.478Z,27.30
2022-08-03T17:40:16.001Z,27.69
2022-08-03T17:42:50.481Z,27.09
2022-08-03T17:45:20.029Z,27.09
2022-08-03T17:47:57.624Z,27.78
2022-08-03T17:50:44.121Z,28.37
2022-08-03T17:53:23.938Z,28.01
2022-08-03T17:56:38.749Z,28.89
2022-08-03T17:59:15.481Z,29.49
2022-08-03T18:02:29.563Z,30.13
2022-08-03T18:05:16.450Z,30.63
2022-08-03T18:07:59.223Z,30.90
2022-08-03T18:10:35.445Z,30.99
2022-08-03T18:13:10.588Z,31.35
2022-08-03T18:15:46.739Z,31.72
2022-08-03T18:18:32.447Z,31.75
2022-08-03T18:21:04.570Z,31.96
2022-08-03T18:23:38.361Z,32.03
2022-08-03T18:26:12.026Z,32.45
2022-08-03T18:28:41.142Z,32.36
2022-08-03T18:32:04.010Z,32.57
2022-08-03T18:34:19.272Z,32.79
2022-08-03T18:36:56.101Z,33.80
2022-08-03T18:39:28.469Z,33.56
2022-08-03T18:41:58.881Z,34.17
2022-08-03T18:44:53.390Z,33.90
2022-08-03T18:47:51.821Z,33.80
2022-08-03T18:50:30.794Z,33.90
2022-08-03T18:53:16.666Z,34.04
2022-08-03T18:56:01.940Z,33.81
2022-08-03T18:58:52.272Z,33.94
2022-08-03T19:01:58.417Z,33.91
2022-08-03T19:04:34.081Z,34.22
2022-08-03T19:07:14.792Z,34.08
2022-08-03T19:09:52.040Z,34.50
2022-08-03T19:12:31.006Z,34.66
2022-08-03T19:15:10.562Z,34.87
2022-08-03T19:17:50.118Z,35.42
2022-08-03T19:20:25.176Z,35.17
2022-08-03T19:22:58.225Z,35.87
2022-08-03T19:28:29.622Z,36.04
2022-08-03T19:31:02.627Z,36.28
2022-08-03T19:33:46.446Z,35.97
2022-08-03T19:36:30.061Z,36.73
2022-08-03T19:38:59.323Z,36.19
2022-08-03T19:41:41.849Z,36.14
2022-08-03T19:44:22.992Z,37.27
2022-08-03T19:47:01.276Z,36.74
2022-08-03T19:50:02.822Z,37.27
2022-08-03T19:52:28.325Z,37.21
2022-08-03T19:55:07.255Z,37.27
2022-08-03T19:57:40.711Z,37.16
2022-08-03T20:00:14.115Z,37.65
2022-08-03T20:02:45.063Z,37.45
2022-08-03T20:05:15.545Z,38.19
2022-08-03T20:07:52.061Z,38.97
2022-08-03T20:10:21.851Z,38.49
2022-08-03T20:12:51.151Z,38.95
2022-08-03T20:15:31.526Z,38.72
2022-08-03T20:18:00.374Z,39.20
2022-08-03T20:20:32.757Z,39.13
2022-08-03T20:23:09.823Z,39.38
2022-08-03T20:25:56.986Z,39.46
2022-08-03T20:28:49.769Z,39.59
2022-08-03T20:31:32.526Z,39.67
2022-08-03T20:34:07.249Z,39.83
2022-08-03T20:36:38.195Z,39.57
2022-08-03T20:39:07.845Z,39.51
2022-08-03T20:41:41.567Z,39.58
2022-08-03T20:44:09.617Z,40.07
2022-08-03T20:46:53.189Z,40.26
2022-08-03T20:49:28.172Z,40.31
2022-08-03T20:51:56.087Z,40.46
2022-08-03T20:57:17.749Z,41.32
2022-08-03T20:59:51.409Z,41.05
2022-08-03T21:05:12.541Z,41.93
2022-08-03T21:08:05.217Z,41.74
2022-08-03T21:10:39.743Z,42.07
2022-08-03T21:13:13.662Z,40.69
2022-08-03T21:16:11.532Z,42.44
2022-08-03T21:18:45.652Z,42.97
2022-08-03T21:21:17.615Z,42.86
2022-08-03T21:23:52.824Z,42.87
2022-08-03T21:26:23.379Z,43.13
2022-08-03T21:28:54.948Z,43.16
2022-08-03T21:31:26.264Z,43.57
2022-08-03T21:34:00.304Z,43.90
2022-08-03T21:36:32.922Z,43.79
2022-08-03T21:39:06.564Z,43.77
2022-08-03T21:41:37.385Z,44.17
2022-08-03T21:44:08.155Z,44.37
2022-08-03T21:46:40.886Z,44.21
2022-08-03T21:50:04.835Z,44.03
2022-08-03T21:52:05.349Z,44.21
2022-08-03T21:54:36.939Z,44.20
2022-08-03T21:57:13.064Z,44.60
2022-08-03T21:59:55.314Z,44.60
2022-08-03T22:02:32.063Z,44.74
2022-08-03T22:05:04.844Z,44.91
2022-08-03T22:07:38.330Z,45.03
2022-08-03T22:10:07.766Z,44.87
2022-08-03T22:12:37.276Z,45.13
2022-08-03T22:15:11.845Z,45.20
2022-08-03T22:17:55.709Z,44.84
2022-08-03T22:20:26.453Z,45.23
2022-08-03T22:23:02.453Z,45.23
2022-08-03T22:25:33.541Z,45.07
2022-08-03T22:28:07.629Z,45.18
2022-08-03T22:30:36.324Z,45.65
2022-08-03T22:33:11.590Z,45.53
2022-08-03T22:35:47.458Z,45.42
2022-08-03T22:38:18.637Z,45.88
2022-08-03T22:40:52.748Z,46.21
2022-08-03T22:43:24.094Z,45.93
2022-08-03T22:46:10.337Z,45.88
2022-08-03T22:48:41.799Z,46.89
2022-08-03T22:51:11.344Z,46.72
2022-08-03T22:53:40.129Z,47.07
2022-08-03T22:56:08.808Z,46.84
2022-08-03T22:58:36.698Z,47.34
2022-08-03T23:01:11.449Z,47.35
2022-08-03T23:03:59.979Z,47.56
2022-08-03T23:06:36.899Z,47.44
2022-08-03T23:09:09.174Z,48.18
2022-08-03T23:11:43.036Z,48.09
2022-08-03T23:14:20.966Z,48.14
2022-08-03T23:16:54.180Z,47.72
2022-08-03T23:19:27.564Z,47.76
2022-08-03T23:22:04.086Z,47.77
2022-08-03T23:24:35.890Z,48.24
2022-08-03T23:27:07.997Z,47.96
2022-08-03T23:29:43.005Z,48.38
2022-08-03T23:32:14.206Z,48.27
2022-08-03T23:35:04.095Z,48.09
2022-08-03T23:37:34.624Z,47.91
2022-08-03T23:40:26.371Z,48.38
2022-08-03T23:42:55.929Z,48.62
2022-08-03T23:45:27.783Z,47.95
2022-08-03T23:47:55.772Z,48.25
2022-08-03T23:50:24.616Z,48.11
2022-08-03T23:53:18.137Z,49.49
2022-08-03T23:56:10.281Z,49.58
2022-08-03T23:59:00.017Z,49.02
